Impacts TAF Board INFO
FOR SITUATIONAL AWARENESS. NOT TO BE USED FOR FLIGHT PLANNING PURPOSES.
IDs:

KPDX - Portland Intl Arpt, OR, US

Issued at 0300 UTC 22 Apr 2018
Updated at 0445 UTC 22 Apr 2018
Potential Impact None Slight Moderate High
Time0353Z 22/05Z 22/06Z 22/07Z 22/08Z 22/09Z 22/10Z 22/11Z 22/12Z 22/13Z 22/14Z 22/15Z 22/16Z 22/17Z>>
Type OBS PRVL PRVL PRVL PRVL PRVL PRVL PRVL PRVL PRVL PRVL PRVL PRVL PRVL
VIS 10 >6 >6 >6 >6 >6 >6 >6 >6 >6 >6 >6 >6 >6
CIG -- -- -- -- -- -- -- -- -- -- -- -- -- --
Cover FEW SCT SCT SCT SCT SCT SCT SCT SCT SCT SCT SCT SCT SCT
FltCat VFR VFR VFR VFR VFR VFR VFR VFR VFR VFR VFR VFR VFR VFR
WX -- -- -- -- -- -- -- -- -- -- -- -- -- --
WDir 340 VRB VRB VRB VRB VRB VRB VRB VRB VRB VRB VRB VRB VRB
WSpd 8 3 3 3 3 3 3 3 3 3 3 3 3 3
WGst -- -- -- -- -- -- -- -- -- -- -- -- -- --

Raw TAF
KPDX 220300Z 2203/2224 34007KT P6SM FEW060 FEW250
  FM220500 VRB03KT P6SM SCT250
  FM221900 32010G18KT P6SM SKC


Raw METAR
KPDX 220353Z 34008KT 10SM FEW060 FEW250 12/03 A3038 RMK AO2 SLP288 T01170033
KPDX 220253Z 34007KT 10SM FEW060 FEW250 13/03 A3037 RMK AO2 SLP284 T01330028 55001
KPDX 220153Z 36008KT 10SM FEW060 FEW180 15/01 A3037 RMK AO2 SLP282 T01500006

METAR Board
Radar Display
Forecast Discussion

FOR SITUATIONAL AWARENESS. NOT TO BE USED FOR FLIGHT PLANNING PURPOSES.